Time;durP1;ratioP1;P1;durP2;ratioP2;P2;SDS_P1;SDS_P2;PMS_P1;PMS_P2;Temp;Humidity;BMP_temperature;BMP_pressure;BME280_temperature;BME280_humidity;BME280_pressure;Samples;Min_cycle;Max_cycle;Signal;HPM_P1;HPM_P2
2022/06/06 00:02:25;;;;;;;5.83;4.60;;;;;;;19.58;62.74;100504.00;4987491;28;20582;-74
2022/06/06 00:04:52;;;;;;;5.30;4.43;;;;;;;19.57;62.63;100506.75;4987656;28;20208;-74
2022/06/06 00:07:20;;;;;;;4.90;4.40;;;;;;;19.56;62.89;100505.91;4987060;28;20497;-74
2022/06/06 00:09:47;;;;;;;4.80;4.37;;;;;;;19.56;63.17;100503.25;4985478;28;20210;-74
2022/06/06 00:12:16;;;;;;;4.83;4.17;;;;;;;19.55;63.76;100508.66;4968742;28;20275;-74
2022/06/06 00:14:42;;;;;;;4.70;4.30;;;;;;;19.52;63.35;100514.97;4984963;28;20236;-73
2022/06/06 00:17:08;;;;;;;5.23;4.70;;;;;;;19.52;63.77;100512.31;4982327;28;20205;-74
2022/06/06 00:19:35;;;;;;;8.43;4.63;;;;;;;19.51;63.37;100513.28;4984526;28;20213;-74
2022/06/06 00:22:01;;;;;;;4.90;4.40;;;;;;;19.50;63.57;100508.94;4985218;28;20221;-74
2022/06/06 00:24:28;;;;;;;4.60;4.20;;;;;;;19.49;63.76;100500.16;4986904;28;20481;-74
2022/06/06 00:26:56;;;;;;;5.17;4.67;;;;;;;19.47;64.08;100507.34;4984454;28;20736;-73
2022/06/06 00:29:23;;;;;;;4.90;4.40;;;;;;;19.44;64.21;100499.63;4985006;28;20197;-74
2022/06/06 00:34:50;;;;;;;5.10;4.60;;;;;;;19.41;64.53;100505.09;4987787;28;20275;-74
2022/06/06 00:37:20;;;;;;;5.43;4.93;;;;;;;19.37;64.79;100510.69;4986786;28;20810;-72
2022/06/06 00:39:46;;;;;;;5.67;4.43;;;;;;;19.31;66.66;100517.22;4983245;28;20205;-73
2022/06/06 00:42:19;;;;;;;6.33;5.13;;;;;;;19.26;65.91;100520.16;4983152;28;20217;-74
2022/06/06 00:44:46;;;;;;;5.10;4.60;;;;;;;19.23;66.11;100517.72;4984224;28;20205;-74
2022/06/06 00:47:19;;;;;;;5.53;5.03;;;;;;;19.20;66.25;100523.19;4983801;28;20193;-74
2022/06/06 00:49:49;;;;;;;5.30;4.80;;;;;;;19.19;66.63;100520.63;4987147;28;20201;-73
2022/06/06 00:52:19;;;;;;;5.43;4.60;;;;;;;19.11;68.42;100524.63;4985299;28;20816;-73
2022/06/06 00:54:49;;;;;;;5.00;4.50;;;;;;;19.02;70.44;100525.22;4969114;28;20202;-73
2022/06/06 00:57:22;;;;;;;6.10;5.27;;;;;;;18.97;69.50;100526.44;4986155;28;20459;-74
2022/06/06 00:59:49;;;;;;;6.30;4.57;;;;;;;18.94;69.46;100527.47;4986949;28;20212;-74
2022/06/06 01:02:17;;;;;;;5.40;4.90;;;;;;;18.92;71.12;100517.00;4988087;28;20205;-74
2022/06/06 01:04:44;;;;;;;7.37;4.93;;;;;;;18.86;73.40;100519.19;4988256;28;20205;-73
2022/06/06 01:07:11;;;;;;;5.87;5.00;;;;;;;18.78;74.82;100503.78;4985887;28;20213;-74
2022/06/06 01:09:39;;;;;;;5.70;5.10;;;;;;;18.73;76.78;100496.16;4984321;28;20216;-74
2022/06/06 01:12:10;;;;;;;5.77;5.13;;;;;;;18.72;76.96;100489.19;4986962;28;20217;-74
2022/06/06 01:14:40;;;;;;;5.77;5.23;;;;;;;18.71;77.46;100476.94;4984560;28;20205;-74
2022/06/06 01:17:19;;;;;;;5.07;4.57;;;;;;;18.73;76.61;100468.88;4985391;28;20205;-74
2022/06/06 01:19:57;;;;;;;5.33;4.83;;;;;;;18.75;75.86;100461.75;4984532;28;20205;-74
2022/06/06 01:23:00;;;;;;;5.37;4.87;;;;;;;18.77;75.59;100458.97;4984021;28;20201;-74
2022/06/06 01:26:00;;;;;;;5.83;5.17;;;;;;;18.76;75.35;100462.59;4984349;28;20255;-74
2022/06/06 01:28:38;;;;;;;6.07;5.23;;;;;;;18.74;76.16;100463.50;4984787;28;20706;-73
2022/06/06 01:31:08;;;;;;;5.67;5.17;;;;;;;18.74;75.48;100468.78;4980974;28;20729;-73
2022/06/06 01:33:48;;;;;;;5.90;5.23;;;;;;;18.72;75.91;100475.13;4982551;28;20344;-73
2022/06/06 01:36:15;;;;;;;5.50;5.00;;;;;;;18.69;77.58;100473.50;4982368;28;20205;-74
2022/06/06 01:38:41;;;;;;;5.63;5.10;;;;;;;18.64;78.26;100478.22;4982014;28;20202;-74
2022/06/06 01:41:11;;;;;;;5.30;4.80;;;;;;;18.61;77.50;100481.09;4984160;28;20229;-73
2022/06/06 01:43:45;;;;;;;6.00;5.30;;;;;;;18.60;79.28;100479.38;4991311;23;20236;-72
2022/06/06 01:46:17;;;;;;;5.90;5.40;;;;;;;18.57;79.78;100484.84;4965876;28;20220;-72
2022/06/06 01:48:45;;;;;;;5.97;4.97;;;;;;;18.52;80.06;100490.44;4969192;28;20205;-72
2022/06/06 01:51:14;;;;;;;5.60;5.10;;;;;;;18.49;80.09;100487.97;4973725;28;20210;-72
2022/06/06 01:53:42;;;;;;;5.70;5.10;;;;;;;18.47;80.96;100487.22;4971635;28;20237;-72
2022/06/06 01:56:11;;;;;;;7.20;5.40;;;;;;;18.44;80.81;100487.41;4966334;28;20206;-72
2022/06/06 01:58:39;;;;;;;6.07;5.47;;;;;;;18.42;81.41;100485.81;4964266;28;20216;-72
2022/06/06 02:01:05;;;;;;;5.70;5.20;;;;;;;18.41;79.63;100482.28;4967700;28;20202;-72
2022/06/06 02:03:33;;;;;;;6.27;5.27;;;;;;;18.43;79.15;100484.84;4963682;28;20574;-72
2022/06/06 02:06:02;;;;;;;5.83;5.23;;;;;;;18.43;80.06;100484.84;4963996;28;20198;-72
2022/06/06 02:08:29;;;;;;;6.27;5.53;;;;;;;18.39;80.82;100485.97;4968723;28;20243;-72
2022/06/06 02:10:55;;;;;;;5.83;5.23;;;;;;;18.37;80.99;100488.72;4964261;28;20206;-72
2022/06/06 02:13:22;;;;;;;6.20;5.53;;;;;;;18.35;80.67;100486.16;4962253;28;20233;-72
2022/06/06 02:15:50;;;;;;;6.40;5.03;;;;;;;18.34;80.58;100484.44;4963628;28;20194;-72
2022/06/06 02:18:16;;;;;;;6.13;5.53;;;;;;;18.33;81.00;100476.66;4964713;28;20193;-72
2022/06/06 02:20:42;;;;;;;6.00;5.40;;;;;;;18.30;81.80;100474.19;4963160;28;20213;-72
2022/06/06 02:23:09;;;;;;;5.33;4.83;;;;;;;18.28;81.83;100474.28;4964737;28;20222;-72
2022/06/06 02:25:36;;;;;;;5.60;4.93;;;;;;;18.26;82.39;100478.81;4967274;28;20203;-72
2022/06/06 02:28:03;;;;;;;6.07;5.47;;;;;;;18.25;83.13;100476.25;4965021;28;20216;-72
2022/06/06 02:30:32;;;;;;;6.57;5.60;;;;;;;18.25;81.94;100485.03;4965695;28;20204;-72
2022/06/06 02:33:01;;;;;;;6.43;5.73;;;;;;;18.22;82.81;100490.47;4968438;28;20417;-72
2022/06/06 02:35:30;;;;;;;6.07;5.47;;;;;;;18.20;82.56;100486.25;4964891;28;20195;-72
2022/06/06 02:37:57;;;;;;;6.57;5.67;;;;;;;18.19;82.84;100480.13;4965512;28;20565;-72
2022/06/06 02:40:25;;;;;;;6.13;5.53;;;;;;;18.19;84.32;100489.81;4961969;28;20242;-72
2022/06/06 02:42:51;;;;;;;7.30;5.93;;;;;;;18.18;86.18;100494.25;4960224;28;20232;-72
2022/06/06 02:45:18;;;;;;;6.07;5.47;;;;;;;18.13;88.45;100488.41;4959547;28;20210;-72
2022/06/06 02:47:47;;;;;;;6.20;5.60;;;;;;;18.07;90.21;100489.63;4962290;28;20212;-72
2022/06/06 02:50:17;;;;;;;7.10;6.33;;;;;;;18.04;91.41;100491.59;4965273;28;20610;-72
2022/06/06 02:52:44;;;;;;;7.20;6.50;;;;;;;17.99;93.13;100486.56;4969325;28;20610;-72
2022/06/06 02:55:12;;;;;;;6.77;6.07;;;;;;;17.93;95.96;100498.34;4966577;28;20202;-72
2022/06/06 02:57:39;;;;;;;7.50;6.80;;;;;;;17.90;97.24;100489.78;4968350;28;20689;-72
2022/06/06 03:00:07;;;;;;;6.30;5.70;;;;;;;17.86;100.00;100490.91;4968149;28;20206;-72
2022/06/06 03:02:35;;;;;;;7.97;6.20;;;;;;;17.81;100.00;100499.03;4967865;28;20221;-72
2022/06/06 03:05:01;;;;;;;6.57;5.97;;;;;;;17.76;100.00;100503.72;4966668;28;20202;-72
2022/06/06 03:07:37;;;;;;;6.53;5.70;;;;;;;17.73;100.00;100503.91;4967663;28;20205;-72
2022/06/06 03:10:17;;;;;;;6.80;6.10;;;;;;;17.73;100.00;100507.41;4969892;28;20209;-72
2022/06/06 03:12:56;;;;;;;7.83;6.00;;;;;;;17.71;100.00;100511.03;4967101;28;20209;-73
2022/06/06 03:20:46;;;;;;;6.80;5.60;;;;;;;17.68;100.00;100509.44;4960140;28;20206;-72
2022/06/06 03:21:35;;;;;;;6.83;5.60;;;;;;;17.61;100.00;100505.47;4967387;28;20508;-72
2022/06/06 03:24:21;;;;;;;10.73;6.27;;;;;;;17.62;100.00;100512.44;4969540;28;20222;-72
2022/06/06 03:27:00;;;;;;;7.43;6.03;;;;;;;17.60;100.00;100523.06;4967203;28;20210;-72
2022/06/06 03:29:37;;;;;;;7.83;6.50;;;;;;;17.57;100.00;100525.88;4967960;28;20562;-72
2022/06/06 03:32:08;;;;;;;6.97;5.97;;;;;;;17.57;100.00;100532.94;4961388;28;20667;-71
2022/06/06 03:34:43;;;;;;;8.47;6.27;;;;;;;17.55;100.00;100533.03;4967749;28;20539;-71
2022/06/06 03:37:17;;;;;;;7.67;6.63;;;;;;;17.53;100.00;100537.53;4966181;28;20217;-71
2022/06/06 03:39:52;;;;;;;7.23;6.40;;;;;;;17.52;100.00;100532.34;4969292;28;20209;-71
2022/06/06 03:42:29;;;;;;;8.10;6.50;;;;;;;17.51;100.00;100542.03;4963748;28;20207;-71
2022/06/06 03:45:10;;;;;;;7.23;6.47;;;;;;;17.49;100.00;100546.53;4966512;28;20209;-71
2022/06/06 03:47:47;;;;;;;8.97;6.73;;;;;;;17.49;100.00;100550.97;4970262;28;20198;-71
2022/06/06 03:50:25;;;;;;;8.43;6.73;;;;;;;17.47;100.00;100551.06;4965628;28;20220;-71
2022/06/06 03:52:56;;;;;;;7.70;6.90;;;;;;;17.47;100.00;100561.59;4968592;28;20236;-72
2022/06/06 03:55:33;;;;;;;7.53;6.83;;;;;;;17.48;100.00;100565.09;4967113;28;20209;-72
2022/06/06 03:58:03;;;;;;;9.03;7.17;;;;;;;17.49;100.00;100569.44;4969762;28;20213;-71
2022/06/06 04:00:32;;;;;;;10.33;7.37;;;;;;;17.50;100.00;100569.34;4964080;28;20256;-71
2022/06/06 04:02:59;;;;;;;8.00;7.20;;;;;;;17.51;100.00;100584.22;4964438;28;20236;-72
2022/06/06 04:05:26;;;;;;;9.23;7.67;;;;;;;17.48;100.00;100579.09;4968550;28;20590;-71
2022/06/06 04:07:52;;;;;;;10.33;8.00;;;;;;;17.47;100.00;100579.22;4967272;28;20565;-72
2022/06/06 04:10:19;;;;;;;9.47;7.50;;;;;;;17.45;100.00;100595.09;4969252;28;20202;-71
2022/06/06 04:13:06;;;;;;;9.23;7.27;;;;;;;17.42;100.00;100588.19;4968744;28;20240;-71
2022/06/06 04:15:43;;;;;;;9.27;7.33;;;;;;;17.44;100.00;100595.19;4967660;28;20193;-71
2022/06/06 04:18:15;;;;;;;9.10;7.03;;;;;;;17.45;100.00;100592.47;4966928;28;20206;-72
2022/06/06 04:20:55;;;;;;;9.60;7.53;;;;;;;17.45;100.00;100588.97;4967844;28;20597;-71
2022/06/06 04:23:40;;;;;;;7.93;6.63;;;;;;;17.46;100.00;100590.69;4964988;28;20217;-72
2022/06/06 04:26:12;;;;;;;11.40;7.47;;;;;;;17.44;100.00;100592.56;4964839;28;20210;-71
2022/06/06 04:28:50;;;;;;;8.93;6.70;;;;;;;17.41;100.00;100577.75;4968384;28;20206;-71
2022/06/06 04:31:26;;;;;;;7.90;6.43;;;;;;;17.44;100.00;100582.00;4968518;28;20198;-71
2022/06/06 04:34:00;;;;;;;9.97;6.23;;;;;;;17.42;100.00;100582.94;4966084;28;20229;-71
2022/06/06 04:36:34;;;;;;;6.90;5.63;;;;;;;17.40;100.00;100581.34;4965448;28;20600;-71
2022/06/06 04:39:09;;;;;;;8.17;6.47;;;;;;;17.41;100.00;100589.16;4964516;28;20194;-72
2022/06/06 04:41:40;;;;;;;7.73;6.70;;;;;;;17.39;100.00;100592.78;4963352;28;20603;-71
2022/06/06 04:44:17;;;;;;;6.93;5.67;;;;;;;17.39;100.00;100596.28;4965861;28;20234;-72
2022/06/06 04:46:50;;;;;;;6.13;5.47;;;;;;;17.38;100.00;100599.84;4967724;28;20198;-72
2022/06/06 04:49:17;;;;;;;7.83;6.43;;;;;;;17.37;100.00;100605.22;4966396;28;20206;-72
2022/06/06 04:51:45;;;;;;;7.97;6.07;;;;;;;17.37;100.00;100599.94;4966208;28;20202;-72
2022/06/06 04:54:15;;;;;;;6.13;5.40;;;;;;;17.37;100.00;100610.47;4964885;28;20233;-71
2022/06/06 04:56:43;;;;;;;8.37;5.83;;;;;;;17.35;100.00;100610.56;4963913;28;20213;-72
2022/06/06 04:59:13;;;;;;;6.47;4.97;;;;;;;17.33;100.00;100612.44;4961961;28;20197;-72
2022/06/06 05:01:41;;;;;;;10.67;5.60;;;;;;;17.33;100.00;100622.97;4969126;28;20198;-72
2022/06/06 05:04:07;;;;;;;7.60;5.23;;;;;;;17.34;100.00;100629.09;4961888;28;20217;-72
2022/06/06 05:07:11;;;;;;;7.57;5.80;;;;;;;17.33;100.00;100633.50;4963331;28;20202;-72
2022/06/06 05:10:05;;;;;;;8.97;5.97;;;;;;;17.30;100.00;100633.66;4916306;28;20681;-72
2022/06/06 05:13:04;;;;;;;6.50;5.60;;;;;;;17.32;100.00;100647.59;4962167;28;20966;-72
2022/06/06 05:15:42;;;;;;;7.17;5.60;;;;;;;17.31;100.00;100648.56;4946628;28;20205;-72
2022/06/06 05:18:25;;;;;;;6.80;5.47;;;;;;;17.32;100.00;100652.88;4966169;28;20209;-72
2022/06/06 05:21:12;;;;;;;6.63;5.60;;;;;;;17.32;100.00;100657.31;4964482;28;20205;-72
2022/06/06 05:24:06;;;;;;;7.80;6.03;;;;;;;17.33;100.00;100653.75;4963678;28;20226;-72
2022/06/06 05:26:53;;;;;;;7.97;5.03;;;;;;;17.36;100.00;100657.06;4962263;28;20209;-72
2022/06/06 05:29:46;;;;;;;6.07;5.47;;;;;;;17.40;100.00;100652.47;4960628;28;20205;-72
2022/06/06 05:32:25;;;;;;;7.67;5.90;;;;;;;17.42;100.00;100658.50;4958580;28;20245;-72
2022/06/06 05:35:00;;;;;;;7.33;5.83;;;;;;;17.44;100.00;100648.75;4960675;28;20742;-72
2022/06/06 05:37:38;;;;;;;7.47;5.87;;;;;;;17.46;100.00;100649.50;4966200;28;20209;-72
2022/06/06 05:40:21;;;;;;;6.47;5.47;;;;;;;17.49;100.00;100649.34;4964022;28;20688;-72
2022/06/06 05:43:05;;;;;;;9.20;6.70;;;;;;;17.55;100.00;100653.41;4965826;28;20229;-72
2022/06/06 05:45:42;;;;;;;6.03;5.43;;;;;;;17.58;100.00;100655.91;4962991;28;20221;-72
2022/06/06 05:48:23;;;;;;;8.27;6.50;;;;;;;17.57;100.00;100647.16;4967999;28;20220;-72
2022/06/06 05:51:04;;;;;;;6.23;5.53;;;;;;;17.63;100.00;100659.13;4969698;28;20658;-72
2022/06/06 05:53:45;;;;;;;7.97;6.43;;;;;;;17.69;100.00;100658.78;4962774;28;20217;-72
2022/06/06 05:56:38;;;;;;;7.37;5.90;;;;;;;17.71;100.00;100671.88;4965630;28;20205;-72
2022/06/06 05:59:30;;;;;;;7.53;5.87;;;;;;;17.78;100.00;100679.38;4963451;28;20213;-72
2022/06/06 06:02:20;;;;;;;9.30;6.23;;;;;;;17.82;100.00;100684.47;4964432;28;20284;-72
2022/06/06 06:05:14;;;;;;;7.90;5.80;;;;;;;17.85;100.00;100692.22;4965233;28;20654;-72
2022/06/06 06:07:52;;;;;;;6.80;5.50;;;;;;;17.84;100.00;100686.09;4961292;28;20666;-72
2022/06/06 06:10:23;;;;;;;7.37;5.40;;;;;;;17.89;100.00;100686.72;4967196;28;20256;-72
2022/06/06 06:13:11;;;;;;;6.57;5.70;;;;;;;17.92;100.00;100683.94;4968392;28;20227;-72
2022/06/06 06:15:40;;;;;;;8.13;6.17;;;;;;;17.94;100.00;100668.84;4964901;28;20194;-72
2022/06/06 06:18:11;;;;;;;7.20;5.67;;;;;;;18.05;100.00;100681.44;4966113;28;20206;-72
2022/06/06 06:20:45;;;;;;;7.10;6.03;;;;;;;18.10;100.00;100679.41;4961564;28;20594;-72
2022/06/06 06:23:16;;;;;;;7.87;5.70;;;;;;;18.10;100.00;100682.03;4965549;28;20224;-72
2022/06/06 06:25:43;;;;;;;5.77;5.10;;;;;;;18.21;100.00;100673.50;4968808;28;20206;-72
2022/06/06 06:28:12;;;;;;;6.33;5.70;;;;;;;18.27;100.00;100678.41;4965777;28;20206;-72
2022/06/06 06:30:56;;;;;;;6.07;5.37;;;;;;;18.38;100.00;100677.81;4966777;28;20669;-72
2022/06/06 06:33:39;;;;;;;6.10;5.50;;;;;;;18.42;100.00;100681.97;4967077;28;20221;-72
2022/06/06 06:36:18;;;;;;;6.40;4.93;;;;;;;18.44;100.00;100685.38;4968864;28;20221;-72
2022/06/06 06:39:00;;;;;;;5.70;4.77;;;;;;;18.46;100.00;100680.00;4971488;28;20481;-72
2022/06/06 06:41:36;;;;;;;5.30;4.80;;;;;;;18.47;100.00;100679.91;4966183;28;20202;-72
2022/06/06 06:44:08;;;;;;;5.77;4.53;;;;;;;18.48;100.00;100684.25;4969311;28;20229;-72
2022/06/06 06:46:41;;;;;;;5.93;4.80;;;;;;;18.40;100.00;100693.53;4967757;28;20476;-72
2022/06/06 06:49:23;;;;;;;5.10;4.60;;;;;;;18.35;100.00;100694.66;4967238;28;20217;-72
2022/06/06 06:52:01;;;;;;;5.30;4.77;;;;;;;18.38;100.00;100693.66;4967959;28;20242;-72
2022/06/06 06:54:45;;;;;;;5.10;4.60;;;;;;;18.39;100.00;100699.78;4971028;28;20225;-72
2022/06/06 06:57:26;;;;;;;6.03;5.27;;;;;;;18.45;100.00;100692.34;4966547;28;20212;-72
2022/06/06 07:00:05;;;;;;;5.13;4.63;;;;;;;18.53;100.00;100702.47;4969175;28;20198;-72
2022/06/06 07:08:35;;;;;;;5.97;4.63;;;;;;;18.90;100.00;100693.25;4966863;28;20276;-72
2022/06/06 07:11:32;;;;;;;6.27;5.00;;;;;;;19.18;100.00;100699.50;4967397;28;20200;-72
2022/06/06 07:14:05;;;;;;;4.90;4.37;;;;;;;19.30;100.00;100709.31;4961074;28;20222;-73
2022/06/06 07:16:34;;;;;;;5.37;4.63;;;;;;;19.57;100.00;100708.56;4967130;28;20205;-72
2022/06/06 07:19:07;;;;;;;4.90;4.40;;;;;;;19.70;100.00;100711.31;4969445;28;20206;-72
2022/06/06 07:21:35;;;;;;;5.50;4.53;;;;;;;20.04;100.00;100702.06;4969103;28;20371;-72
2022/06/06 07:24:05;;;;;;;5.30;4.80;;;;;;;20.11;100.00;100704.34;4966227;28;20230;-72
2022/06/06 07:26:37;;;;;;;4.87;4.30;;;;;;;20.14;100.00;100706.75;4964435;28;20198;-72
2022/06/06 07:29:05;;;;;;;5.07;4.57;;;;;;;20.22;100.00;100707.13;4962734;28;20215;-72
2022/06/06 07:31:41;;;;;;;5.63;5.07;;;;;;;20.45;100.00;100710.06;4964271;28;20202;-72
2022/06/06 07:34:20;;;;;;;5.03;4.20;;;;;;;20.70;100.00;100704.88;4964374;28;20222;-73
2022/06/06 07:36:58;;;;;;;6.90;4.40;;;;;;;20.82;100.00;100704.97;4966883;28;20224;-72
2022/06/06 07:39:34;;;;;;;4.40;4.00;;;;;;;20.70;100.00;100715.47;4959013;28;21951;-72
2022/06/06 07:42:26;;;;;;;4.60;4.20;;;;;;;20.67;100.00;100725.38;4968090;28;20213;-72
2022/06/06 07:45:09;;;;;;;4.43;4.00;;;;;;;20.64;100.00;100721.16;4963988;23;20632;-72
2022/06/06 07:47:48;;;;;;;4.20;3.80;;;;;;;20.60;100.00;100714.34;4948315;28;20234;-72
2022/06/06 07:50:21;;;;;;;4.27;3.87;;;;;;;20.67;100.00;100715.66;4941664;28;20738;-72
2022/06/06 07:53:00;;;;;;;4.67;4.27;;;;;;;20.99;100.00;100715.28;4946541;28;20278;-72
2022/06/06 07:55:32;;;;;;;4.13;3.73;;;;;;;21.21;100.00;100719.94;4928304;29;20227;-71
2022/06/06 07:58:09;;;;;;;4.30;3.90;;;;;;;21.39;100.00;100715.16;4928583;29;20203;-71
2022/06/06 08:00:35;;;;;;;4.50;4.10;;;;;;;21.40;100.00;100714.19;4927886;29;20206;-72
2022/06/06 08:03:15;;;;;;;4.50;4.10;;;;;;;21.41;100.00;100731.81;4926565;29;20215;-71
2022/06/06 08:06:04;;;;;;;4.00;3.60;;;;;;;21.30;100.00;100726.41;4925759;29;20192;-72
2022/06/06 08:08:45;;;;;;;4.47;4.00;;;;;;;21.35;100.00;100727.78;4930106;29;20217;-73
2022/06/06 08:11:20;;;;;;;3.93;3.57;;;;;;;21.43;100.00;100719.28;4927822;29;20299;-72
2022/06/06 08:13:57;;;;;;;4.97;4.10;;;;;;;21.22;97.47;100737.53;4926021;29;20230;-72
2022/06/06 08:16:30;;;;;;;4.83;4.33;;;;;;;21.35;100.00;100726.94;4929212;29;20203;-73
2022/06/06 08:19:15;;;;;;;4.10;3.70;;;;;;;21.33;100.00;100723.53;4928097;29;20218;-73
2022/06/06 08:21:44;;;;;;;4.70;4.30;;;;;;;21.63;100.00;100720.56;4928726;29;20205;-70
2022/06/06 08:24:16;;;;;;;4.93;4.33;;;;;;;21.63;95.67;100727.66;4926558;29;20238;-72
2022/06/06 08:26:46;;;;;;;5.47;4.23;;;;;;;21.70;91.81;100736.88;4928878;29;20218;-72
2022/06/06 08:29:13;;;;;;;5.00;4.00;;;;;;;21.75;87.63;100743.56;4924668;29;20580;-73
2022/06/06 08:31:39;;;;;;;6.63;4.40;;;;;;;21.87;87.34;100741.84;4926709;29;20216;-71
2022/06/06 08:34:06;;;;;;;6.53;4.55;;;;;;;22.03;88.72;100741.59;4928848;29;20258;-73
2022/06/06 08:36:51;;;;;;;4.63;4.23;;;;;;;21.92;86.24;100746.84;4930650;29;20196;-72
2022/06/06 08:39:26;;;;;;;5.80;4.72;;;;;;;21.93;85.73;100752.03;4926673;29;20214;-70
2022/06/06 08:42:24;;;;;;;4.97;4.03;;;;;;;21.98;88.40;100742.88;4926043;29;20756;-73
2022/06/06 08:44:57;;;;;;;4.30;3.80;;;;;;;22.22;86.60;100749.06;4926070;29;20267;-73
2022/06/06 08:47:30;;;;;;;6.68;4.53;;;;;;;22.56;83.60;100743.94;4927342;29;20203;-72
2022/06/06 08:53:59;;;;;;;4.72;4.18;;;;;;;22.35;82.88;100756.16;4923996;29;20254;-73
2022/06/06 08:56:44;;;;;;;4.07;3.67;;;;;;;22.56;81.65;100745.75;4922269;29;20210;-71
2022/06/06 08:59:45;;;;;;;4.35;3.78;;;;;;;22.70;80.55;100740.25;4923714;29;20208;-72
2022/06/06 09:02:42;;;;;;;4.80;3.35;;;;;;;22.93;76.68;100749.13;4921707;29;20226;-73
2022/06/06 09:05:40;;;;;;;3.95;3.47;;;;;;;23.12;77.54;100745.09;4922751;29;20219;-72
2022/06/06 09:08:40;;;;;;;5.53;3.80;;;;;;;23.37;76.18;100744.03;4919849;29;20211;-72
2022/06/06 09:11:39;;;;;;;4.05;3.33;;;;;;;23.55;75.62;100741.72;4918714;29;20199;-73
2022/06/06 09:14:33;;;;;;;3.42;3.13;;;;;;;23.74;76.31;100726.00;4921697;29;20613;-73
2022/06/06 09:17:19;;;;;;;3.20;2.83;;;;;;;23.77;75.56;100733.72;4922002;29;20200;-73
2022/06/06 09:20:08;;;;;;;2.50;2.30;;;;;;;23.92;72.12;100736.16;4923519;29;20209;-73
2022/06/06 09:23:06;;;;;;;2.83;2.63;;;;;;;23.97;69.76;100734.84;4925168;29;20660;-73
2022/06/06 09:25:38;;;;;;;2.85;2.65;;;;;;;24.05;70.38;100728.88;4927719;29;20203;-73
2022/06/06 09:28:52;;;;;;;4.10;3.00;;;;;;;24.11;69.64;100733.69;4926391;29;20660;-71
2022/06/06 09:31:50;;;;;;;3.05;2.70;;;;;;;23.95;71.45;100718.13;4927645;29;20203;-73
2022/06/06 09:34:52;;;;;;;2.70;2.50;;;;;;;24.04;71.40;100724.50;4925866;29;20219;-73
2022/06/06 09:37:38;;;;;;;3.03;2.38;;;;;;;24.26;63.27;100736.94;4925310;29;20567;-73
2022/06/06 09:40:48;;;;;;;2.80;2.50;;;;;;;24.15;65.61;100724.50;4920982;29;20203;-70
2022/06/06 09:43:26;;;;;;;5.20;2.97;;;;;;;24.23;65.41;100725.69;4924899;29;20223;-72
2022/06/06 09:46:42;;;;;;;2.67;2.47;;;;;;;24.47;69.13;100717.50;4926769;29;20203;-73
2022/06/06 09:49:44;;;;;;;2.60;2.40;;;;;;;24.58;69.13;100719.28;4923721;29;20203;-72
2022/06/06 09:52:47;;;;;;;2.53;2.33;;;;;;;24.70;68.81;100721.75;4927241;29;20203;-72
2022/06/06 09:59:04;;;;;;;3.05;2.70;;;;;;;24.70;68.73;100719.09;4923991;29;20786;-73
2022/06/06 10:02:04;;;;;;;2.88;2.53;;;;;;;24.47;67.44;100729.00;4926308;29;20211;-73
2022/06/06 10:05:03;;;;;;;3.97;2.50;;;;;;;24.62;69.16;100726.03;4926662;29;20224;-73
2022/06/06 10:08:05;;;;;;;2.88;2.55;;;;;;;24.67;67.15;100721.16;4926750;29;20205;-72
2022/06/06 10:10:55;;;;;;;2.65;2.45;;;;;;;24.86;68.67;100717.81;4928023;29;20191;-72
2022/06/06 10:13:37;;;;;;;4.00;2.72;;;;;;;24.55;63.38;100721.25;4926452;29;20462;-73
2022/06/06 10:16:16;;;;;;;4.80;2.60;;;;;;;24.41;66.53;100713.50;4925301;29;20215;-73
2022/06/06 10:19:03;;;;;;;2.55;2.35;;;;;;;24.12;66.74;100710.59;4929246;29;20210;-70
2022/06/06 10:21:52;;;;;;;2.40;2.20;;;;;;;24.02;66.07;100709.66;4927492;29;20210;-73
2022/06/06 10:24:36;;;;;;;2.60;2.40;;;;;;;24.44;70.19;100710.59;4923079;29;20710;-73
2022/06/06 10:27:17;;;;;;;2.72;2.42;;;;;;;24.76;69.16;100710.56;4923395;29;20207;-73
2022/06/06 10:30:13;;;;;;;2.63;2.42;;;;;;;25.08;66.87;100711.47;4919482;29;20195;-73
2022/06/06 10:33:18;;;;;;;3.95;2.60;;;;;;;25.15;64.88;100707.28;4923950;29;20732;-71
2022/06/06 10:36:16;;;;;;;2.90;2.60;;;;;;;25.12;64.24;100711.06;4917669;29;20238;-74
2022/06/06 10:39:28;;;;;;;2.97;2.50;;;;;;;24.74;58.30;100717.00;4921825;29;20207;-74
2022/06/06 10:42:18;;;;;;;2.50;2.30;;;;;;;24.56;60.15;100722.06;4925781;29;20211;-75
2022/06/06 10:45:22;;;;;;;2.47;2.28;;;;;;;24.37;63.22;100706.75;4901798;29;20399;-74
2022/06/06 10:48:17;;;;;;;3.63;2.45;;;;;;;24.29;63.00;100714.50;4865281;29;20242;-73
2022/06/06 10:54:29;;;;;;;2.55;2.35;;;;;;;24.21;63.59;100714.31;4907518;29;20219;-73
2022/06/06 10:57:25;;;;;;;2.20;2.00;;;;;;;24.29;63.60;100717.19;4887836;29;20216;-73
2022/06/06 11:00:14;;;;;;;2.42;2.15;;;;;;;24.31;59.56;100726.75;4906382;29;20215;-73
2022/06/06 11:03:09;;;;;;;2.40;2.20;;;;;;;24.35;61.95;100709.53;4907633;29;20295;-72
2022/06/06 11:06:04;;;;;;;2.08;1.80;;;;;;;24.33;59.00;100716.81;4907800;29;20664;-74
2022/06/06 11:09:02;;;;;;;2.15;1.98;;;;;;;24.23;64.24;100705.22;4906770;29;20208;-73
2022/06/06 11:12:06;;;;;;;2.42;2.22;;;;;;;24.11;59.99;100712.38;4906733;29;20212;-73
2022/06/06 11:14:37;;;;;;;2.60;2.40;;;;;;;24.07;61.16;100704.78;4911147;29;20224;-74
2022/06/06 11:17:33;;;;;;;1.90;1.80;;;;;;;24.11;61.23;100703.56;4911117;29;20238;-74
2022/06/06 11:20:47;;;;;;;3.50;2.28;;;;;;;24.12;65.22;100703.44;4907203;29;20204;-74
2022/06/06 11:23:20;;;;;;;2.47;2.28;;;;;;;24.02;65.61;100699.00;4907836;29;20226;-74
2022/06/06 11:26:05;;;;;;;2.95;1.80;;;;;;;23.97;62.98;100694.91;4907026;29;20195;-74
2022/06/06 11:29:03;;;;;;;2.28;2.08;;;;;;;23.94;64.05;100695.16;4906019;29;20207;-74
2022/06/06 11:31:54;;;;;;;2.28;1.77;;;;;;;23.97;68.58;100686.91;4907747;29;20197;-73
2022/06/06 11:34:51;;;;;;;1.92;1.83;;;;;;;23.83;66.38;100692.50;4904174;29;20234;-73
2022/06/06 11:37:55;;;;;;;1.80;1.60;;;;;;;23.79;62.59;100697.19;4904407;29;20204;-73
2022/06/06 11:40:52;;;;;;;1.85;1.70;;;;;;;23.83;65.27;100697.81;4907394;29;20208;-73
2022/06/06 11:43:34;;;;;;;2.38;1.73;;;;;;;23.83;64.21;100700.47;4906795;29;20867;-71
2022/06/06 11:46:28;;;;;;;2.03;1.83;;;;;;;23.90;64.28;100687.53;4926111;29;20213;-73
2022/06/06 11:49:35;;;;;;;1.92;1.83;;;;;;;23.99;60.46;100700.06;4925603;29;20199;-73
2022/06/06 11:52:28;;;;;;;2.80;1.55;;;;;;;24.19;65.27;100696.63;4926437;29;20222;-73
2022/06/06 11:55:13;;;;;;;2.95;1.83;;;;;;;24.23;66.14;100691.91;4929914;29;20270;-73
2022/06/06 11:58:02;;;;;;;2.28;1.70;;;;;;;24.22;67.43;100690.22;4925218;29;20218;-74
2022/06/06 12:00:38;;;;;;;2.00;1.35;;;;;;;23.90;66.71;100687.53;4926634;29;20588;-72
2022/06/06 12:03:33;;;;;;;1.40;1.30;;;;;;;24.05;67.92;100680.94;4921335;29;20582;-72
2022/06/06 12:06:28;;;;;;;1.42;1.33;;;;;;;24.37;67.16;100672.09;4922198;29;20200;-72
2022/06/06 12:09:07;;;;;;;1.40;1.30;;;;;;;24.67;61.86;100686.53;4923308;29;20211;-73
2022/06/06 12:12:04;;;;;;;2.28;1.70;;;;;;;24.91;65.59;100670.25;4930000;29;20238;-72
2022/06/06 12:14:54;;;;;;;2.60;1.60;;;;;;;25.03;63.78;100663.88;4929731;29;20237;-73
2022/06/06 12:17:37;;;;;;;1.23;1.13;;;;;;;25.13;63.20;100667.44;4926485;29;20214;-72
2022/06/06 12:20:29;;;;;;;3.97;1.60;;;;;;;24.96;60.87;100665.38;4927429;29;20207;-72
2022/06/06 12:23:06;;;;;;;2.63;1.40;;;;;;;24.95;62.56;100666.34;4928404;29;20293;-72
2022/06/06 12:25:50;;;;;;;1.02;1.02;;;;;;;24.91;60.70;100667.59;4926267;29;20206;-72
2022/06/06 12:28:50;;;;;;;1.50;1.40;;;;;;;25.12;57.93;100673.72;4922866;29;20207;-71
2022/06/06 12:31:33;;;;;;;1.83;1.30;;;;;;;25.13;57.47;100672.75;4924363;29;20211;-72
2022/06/06 12:34:08;;;;;;;2.28;1.48;;;;;;;24.94;57.08;100669.97;4926942;29;20246;-73
2022/06/06 12:36:43;;;;;;;1.60;1.50;;;;;;;24.84;58.14;100680.59;4926880;29;20598;-73
2022/06/06 12:39:16;;;;;;;1.65;1.55;;;;;;;24.91;57.25;100667.59;4922608;29;20219;-72
2022/06/06 12:41:54;;;;;;;1.50;1.40;;;;;;;25.35;57.35;100675.38;4922988;29;20299;-72